Terminal Aerodrome Forecast
Issued by NWS Missoula, MT

Home | Current Version | Previous Version | Text Only | Print | Product List | Glossary On
Versions: 1 2 3 4 5 6 7 8 9 10 11 12 13 14 15 16
000
FTUS45 KMSO 280520
TAFBTM
TAF
KBTM 280520Z 2806/2906 33003KT P6SM -RA BKN050 OVC070
     FM281200 VRB06KT P6SM SCT100
     FM281800 30012G20KT P6SM SCT150
     FM290200 VRB06KT P6SM SKC=

USA.gov is the U.S. government's official web portal to all federal, state and local government web resources and services.